sensor_id;sensor_type;location;lat;lon;timestamp;P1;durP1;ratioP1;P2;durP2;ratioP2
31978;SDS011;18502;43.574;1.276;2023-11-19T00:00:16;31.73;;;18.80;;
31978;SDS011;18502;43.574;1.276;2023-11-19T00:02:42;36.10;;;22.55;;
31978;SDS011;18502;43.574;1.276;2023-11-19T00:05:08;30.83;;;19.05;;
31978;SDS011;18502;43.574;1.276;2023-11-19T00:07:36;29.17;;;18.33;;
31978;SDS011;18502;43.574;1.276;2023-11-19T00:10:06;30.77;;;18.83;;
31978;SDS011;18502;43.574;1.276;2023-11-19T00:12:36;34.43;;;21.53;;
31978;SDS011;18502;43.574;1.276;2023-11-19T00:15:02;39.90;;;23.10;;
31978;SDS011;18502;43.574;1.276;2023-11-19T00:17:28;29.98;;;18.95;;
31978;SDS011;18502;43.574;1.276;2023-11-19T00:19:54;32.03;;;18.80;;
31978;SDS011;18502;43.574;1.276;2023-11-19T00:22:20;38.55;;;20.42;;
31978;SDS011;18502;43.574;1.276;2023-11-19T00:24:46;34.00;;;19.88;;
31978;SDS011;18502;43.574;1.276;2023-11-19T00:27:12;33.67;;;21.55;;
31978;SDS011;18502;43.574;1.276;2023-11-19T00:29:38;36.92;;;22.20;;
31978;SDS011;18502;43.574;1.276;2023-11-19T00:32:03;33.30;;;20.33;;
31978;SDS011;18502;43.574;1.276;2023-11-19T00:34:30;35.33;;;21.10;;
31978;SDS011;18502;43.574;1.276;2023-11-19T00:36:56;32.33;;;19.48;;
31978;SDS011;18502;43.574;1.276;2023-11-19T00:39:21;32.08;;;20.35;;
31978;SDS011;18502;43.574;1.276;2023-11-19T00:41:47;29.35;;;20.00;;
31978;SDS011;18502;43.574;1.276;2023-11-19T00:44:13;32.85;;;18.45;;
31978;SDS011;18502;43.574;1.276;2023-11-19T00:46:39;30.83;;;19.52;;
31978;SDS011;18502;43.574;1.276;2023-11-19T00:49:05;33.05;;;19.63;;
31978;SDS011;18502;43.574;1.276;2023-11-19T00:51:30;30.73;;;18.90;;
31978;SDS011;18502;43.574;1.276;2023-11-19T00:53:59;35.92;;;21.10;;
31978;SDS011;18502;43.574;1.276;2023-11-19T00:56:25;34.55;;;20.67;;
31978;SDS011;18502;43.574;1.276;2023-11-19T00:58:51;31.60;;;20.95;;
31978;SDS011;18502;43.574;1.276;2023-11-19T01:01:17;29.48;;;20.20;;
31978;SDS011;18502;43.574;1.276;2023-11-19T01:03:42;30.45;;;19.15;;
31978;SDS011;18502;43.574;1.276;2023-11-19T01:06:08;39.53;;;22.75;;
31978;SDS011;18502;43.574;1.276;2023-11-19T01:08:34;30.70;;;20.02;;
31978;SDS011;18502;43.574;1.276;2023-11-19T01:11:01;31.40;;;20.17;;
31978;SDS011;18502;43.574;1.276;2023-11-19T01:13:27;26.88;;;18.90;;
31978;SDS011;18502;43.574;1.276;2023-11-19T01:15:53;28.20;;;17.48;;
31978;SDS011;18502;43.574;1.276;2023-11-19T01:18:21;30.63;;;18.63;;
31978;SDS011;18502;43.574;1.276;2023-11-19T01:20:47;28.33;;;17.45;;
31978;SDS011;18502;43.574;1.276;2023-11-19T01:23:12;28.42;;;19.20;;
31978;SDS011;18502;43.574;1.276;2023-11-19T01:25:38;30.02;;;18.05;;
31978;SDS011;18502;43.574;1.276;2023-11-19T01:28:03;29.88;;;18.83;;
31978;SDS011;18502;43.574;1.276;2023-11-19T01:30:29;31.17;;;18.10;;
31978;SDS011;18502;43.574;1.276;2023-11-19T01:32:55;26.80;;;17.27;;
31978;SDS011;18502;43.574;1.276;2023-11-19T01:35:21;22.90;;;16.33;;
31978;SDS011;18502;43.574;1.276;2023-11-19T01:37:48;23.15;;;16.25;;
31978;SDS011;18502;43.574;1.276;2023-11-19T01:40:15;25.50;;;15.30;;
31978;SDS011;18502;43.574;1.276;2023-11-19T01:42:45;24.13;;;14.95;;
31978;SDS011;18502;43.574;1.276;2023-11-19T01:45:11;24.25;;;14.48;;
31978;SDS011;18502;43.574;1.276;2023-11-19T01:47:55;18.23;;;13.00;;
31978;SDS011;18502;43.574;1.276;2023-11-19T01:50:22;21.45;;;13.18;;
31978;SDS011;18502;43.574;1.276;2023-11-19T01:52:54;21.08;;;13.43;;
31978;SDS011;18502;43.574;1.276;2023-11-19T01:55:22;22.55;;;12.80;;
31978;SDS011;18502;43.574;1.276;2023-11-19T01:57:49;25.08;;;15.63;;
31978;SDS011;18502;43.574;1.276;2023-11-19T02:00:16;22.15;;;13.50;;
31978;SDS011;18502;43.574;1.276;2023-11-19T02:02:44;21.67;;;12.95;;
31978;SDS011;18502;43.574;1.276;2023-11-19T02:05:11;22.17;;;12.98;;
31978;SDS011;18502;43.574;1.276;2023-11-19T02:07:38;20.58;;;13.23;;
31978;SDS011;18502;43.574;1.276;2023-11-19T02:10:04;20.40;;;13.25;;
31978;SDS011;18502;43.574;1.276;2023-11-19T02:12:30;20.70;;;12.93;;
31978;SDS011;18502;43.574;1.276;2023-11-19T02:15:00;19.38;;;13.20;;
31978;SDS011;18502;43.574;1.276;2023-11-19T02:17:28;19.85;;;12.93;;
31978;SDS011;18502;43.574;1.276;2023-11-19T02:19:56;24.02;;;13.48;;
31978;SDS011;18502;43.574;1.276;2023-11-19T02:22:23;19.15;;;12.05;;
31978;SDS011;18502;43.574;1.276;2023-11-19T02:24:49;17.13;;;12.15;;
31978;SDS011;18502;43.574;1.276;2023-11-19T02:27:26;24.83;;;12.15;;
31978;SDS011;18502;43.574;1.276;2023-11-19T02:30:09;18.80;;;12.07;;
31978;SDS011;18502;43.574;1.276;2023-11-19T02:32:36;19.70;;;12.95;;
31978;SDS011;18502;43.574;1.276;2023-11-19T02:35:05;25.70;;;13.57;;
31978;SDS011;18502;43.574;1.276;2023-11-19T02:37:32;20.52;;;13.48;;
31978;SDS011;18502;43.574;1.276;2023-11-19T02:39:59;17.65;;;12.63;;
31978;SDS011;18502;43.574;1.276;2023-11-19T02:42:28;21.90;;;13.70;;
31978;SDS011;18502;43.574;1.276;2023-11-19T02:44:53;21.33;;;13.75;;
31978;SDS011;18502;43.574;1.276;2023-11-19T02:47:19;26.98;;;16.77;;
31978;SDS011;18502;43.574;1.276;2023-11-19T02:49:46;21.27;;;13.65;;
31978;SDS011;18502;43.574;1.276;2023-11-19T02:52:12;20.63;;;13.38;;
31978;SDS011;18502;43.574;1.276;2023-11-19T02:54:39;25.63;;;16.20;;
31978;SDS011;18502;43.574;1.276;2023-11-19T02:57:06;26.20;;;15.00;;
31978;SDS011;18502;43.574;1.276;2023-11-19T02:59:34;26.52;;;15.27;;
31978;SDS011;18502;43.574;1.276;2023-11-19T03:02:04;22.65;;;13.95;;
31978;SDS011;18502;43.574;1.276;2023-11-19T03:04:32;25.05;;;14.38;;
31978;SDS011;18502;43.574;1.276;2023-11-19T03:06:58;20.15;;;13.63;;
31978;SDS011;18502;43.574;1.276;2023-11-19T03:09:24;25.25;;;14.43;;
31978;SDS011;18502;43.574;1.276;2023-11-19T03:11:50;24.85;;;14.80;;
31978;SDS011;18502;43.574;1.276;2023-11-19T03:14:15;23.23;;;14.38;;
31978;SDS011;18502;43.574;1.276;2023-11-19T03:16:44;20.35;;;12.25;;
31978;SDS011;18502;43.574;1.276;2023-11-19T03:19:11;18.92;;;12.70;;
31978;SDS011;18502;43.574;1.276;2023-11-19T03:21:37;23.33;;;15.20;;
31978;SDS011;18502;43.574;1.276;2023-11-19T03:24:02;22.70;;;14.57;;
31978;SDS011;18502;43.574;1.276;2023-11-19T03:26:28;23.58;;;14.60;;
31978;SDS011;18502;43.574;1.276;2023-11-19T03:28:54;27.40;;;15.40;;
31978;SDS011;18502;43.574;1.276;2023-11-19T03:31:22;19.52;;;13.00;;
31978;SDS011;18502;43.574;1.276;2023-11-19T03:33:48;21.95;;;13.18;;
31978;SDS011;18502;43.574;1.276;2023-11-19T03:36:13;18.30;;;11.40;;
31978;SDS011;18502;43.574;1.276;2023-11-19T03:38:39;22.42;;;14.77;;
31978;SDS011;18502;43.574;1.276;2023-11-19T03:41:11;29.48;;;16.27;;
31978;SDS011;18502;43.574;1.276;2023-11-19T03:43:40;19.63;;;13.52;;
31978;SDS011;18502;43.574;1.276;2023-11-19T03:46:16;19.30;;;11.93;;
31978;SDS011;18502;43.574;1.276;2023-11-19T03:48:48;20.93;;;12.23;;
31978;SDS011;18502;43.574;1.276;2023-11-19T03:51:15;20.48;;;13.60;;
31978;SDS011;18502;43.574;1.276;2023-11-19T03:53:44;21.38;;;12.43;;
31978;SDS011;18502;43.574;1.276;2023-11-19T03:56:10;23.08;;;13.25;;
31978;SDS011;18502;43.574;1.276;2023-11-19T03:58:36;21.10;;;11.57;;
31978;SDS011;18502;43.574;1.276;2023-11-19T04:01:03;19.95;;;12.00;;
31978;SDS011;18502;43.574;1.276;2023-11-19T04:03:38;17.58;;;11.85;;
31978;SDS011;18502;43.574;1.276;2023-11-19T04:06:04;22.40;;;12.82;;
31978;SDS011;18502;43.574;1.276;2023-11-19T04:08:30;18.30;;;11.98;;
31978;SDS011;18502;43.574;1.276;2023-11-19T04:10:55;22.05;;;14.60;;
31978;SDS011;18502;43.574;1.276;2023-11-19T04:13:21;22.23;;;11.65;;
31978;SDS011;18502;43.574;1.276;2023-11-19T04:15:49;19.63;;;12.60;;
31978;SDS011;18502;43.574;1.276;2023-11-19T04:18:15;22.10;;;11.93;;
31978;SDS011;18502;43.574;1.276;2023-11-19T04:20:41;24.90;;;13.60;;
31978;SDS011;18502;43.574;1.276;2023-11-19T04:23:07;21.88;;;11.80;;
31978;SDS011;18502;43.574;1.276;2023-11-19T04:25:34;20.02;;;11.95;;
31978;SDS011;18502;43.574;1.276;2023-11-19T04:28:00;17.25;;;10.95;;
31978;SDS011;18502;43.574;1.276;2023-11-19T04:30:27;32.45;;;14.18;;
31978;SDS011;18502;43.574;1.276;2023-11-19T04:32:53;21.00;;;13.63;;
31978;SDS011;18502;43.574;1.276;2023-11-19T04:35:18;25.20;;;13.48;;
31978;SDS011;18502;43.574;1.276;2023-11-19T04:37:44;24.00;;;13.15;;
31978;SDS011;18502;43.574;1.276;2023-11-19T04:40:10;22.55;;;13.18;;
31978;SDS011;18502;43.574;1.276;2023-11-19T04:42:37;23.75;;;12.38;;
31978;SDS011;18502;43.574;1.276;2023-11-19T04:45:05;20.55;;;12.00;;
31978;SDS011;18502;43.574;1.276;2023-11-19T04:47:32;16.65;;;11.90;;
31978;SDS011;18502;43.574;1.276;2023-11-19T04:49:59;26.08;;;13.18;;
31978;SDS011;18502;43.574;1.276;2023-11-19T04:52:25;24.13;;;13.90;;
31978;SDS011;18502;43.574;1.276;2023-11-19T04:54:50;22.05;;;13.13;;
31978;SDS011;18502;43.574;1.276;2023-11-19T04:57:16;23.83;;;12.85;;
31978;SDS011;18502;43.574;1.276;2023-11-19T04:59:42;29.92;;;14.68;;
31978;SDS011;18502;43.574;1.276;2023-11-19T05:02:08;23.67;;;13.00;;
31978;SDS011;18502;43.574;1.276;2023-11-19T05:04:34;22.77;;;13.27;;
31978;SDS011;18502;43.574;1.276;2023-11-19T05:07:00;28.48;;;14.30;;
31978;SDS011;18502;43.574;1.276;2023-11-19T05:09:25;19.67;;;12.55;;
31978;SDS011;18502;43.574;1.276;2023-11-19T05:11:51;25.40;;;14.20;;
31978;SDS011;18502;43.574;1.276;2023-11-19T05:14:17;20.60;;;11.63;;
31978;SDS011;18502;43.574;1.276;2023-11-19T05:16:45;19.38;;;13.20;;
31978;SDS011;18502;43.574;1.276;2023-11-19T05:19:11;21.92;;;11.90;;
31978;SDS011;18502;43.574;1.276;2023-11-19T05:21:37;27.02;;;14.02;;
31978;SDS011;18502;43.574;1.276;2023-11-19T05:24:02;23.50;;;13.57;;
31978;SDS011;18502;43.574;1.276;2023-11-19T05:26:31;26.20;;;14.65;;
31978;SDS011;18502;43.574;1.276;2023-11-19T05:28:56;19.25;;;12.07;;
31978;SDS011;18502;43.574;1.276;2023-11-19T05:31:22;22.35;;;14.15;;
31978;SDS011;18502;43.574;1.276;2023-11-19T05:33:48;23.63;;;12.70;;
31978;SDS011;18502;43.574;1.276;2023-11-19T05:36:13;25.45;;;14.68;;
31978;SDS011;18502;43.574;1.276;2023-11-19T05:38:39;26.80;;;13.98;;
31978;SDS011;18502;43.574;1.276;2023-11-19T05:41:05;29.80;;;14.25;;
31978;SDS011;18502;43.574;1.276;2023-11-19T05:43:33;31.58;;;14.30;;
31978;SDS011;18502;43.574;1.276;2023-11-19T05:45:59;25.85;;;13.70;;
31978;SDS011;18502;43.574;1.276;2023-11-19T05:48:26;30.42;;;16.05;;
31978;SDS011;18502;43.574;1.276;2023-11-19T05:50:52;22.98;;;14.70;;
31978;SDS011;18502;43.574;1.276;2023-11-19T05:53:18;30.38;;;16.35;;
31978;SDS011;18502;43.574;1.276;2023-11-19T05:55:44;33.28;;;16.40;;
31978;SDS011;18502;43.574;1.276;2023-11-19T05:58:11;26.90;;;14.23;;
31978;SDS011;18502;43.574;1.276;2023-11-19T06:00:38;23.95;;;12.25;;
31978;SDS011;18502;43.574;1.276;2023-11-19T06:03:05;30.40;;;14.50;;
31978;SDS011;18502;43.574;1.276;2023-11-19T06:05:32;29.00;;;14.80;;
31978;SDS011;18502;43.574;1.276;2023-11-19T06:07:58;22.92;;;13.70;;
31978;SDS011;18502;43.574;1.276;2023-11-19T06:10:24;26.70;;;15.02;;
31978;SDS011;18502;43.574;1.276;2023-11-19T06:12:55;25.75;;;14.15;;
31978;SDS011;18502;43.574;1.276;2023-11-19T06:15:24;26.50;;;15.65;;
31978;SDS011;18502;43.574;1.276;2023-11-19T06:17:52;25.65;;;16.02;;
31978;SDS011;18502;43.574;1.276;2023-11-19T06:20:17;23.38;;;13.77;;
31978;SDS011;18502;43.574;1.276;2023-11-19T06:22:44;27.33;;;15.95;;
31978;SDS011;18502;43.574;1.276;2023-11-19T06:25:11;22.95;;;14.48;;
31978;SDS011;18502;43.574;1.276;2023-11-19T06:27:39;26.48;;;15.45;;
31978;SDS011;18502;43.574;1.276;2023-11-19T06:30:08;20.25;;;13.43;;
31978;SDS011;18502;43.574;1.276;2023-11-19T06:32:34;28.00;;;15.93;;
31978;SDS011;18502;43.574;1.276;2023-11-19T06:35:00;27.40;;;15.93;;
31978;SDS011;18502;43.574;1.276;2023-11-19T06:37:26;36.45;;;14.50;;
31978;SDS011;18502;43.574;1.276;2023-11-19T06:39:52;21.17;;;14.20;;
31978;SDS011;18502;43.574;1.276;2023-11-19T06:42:18;23.20;;;14.13;;
31978;SDS011;18502;43.574;1.276;2023-11-19T06:44:43;20.50;;;13.15;;
31978;SDS011;18502;43.574;1.276;2023-11-19T06:47:09;22.45;;;13.80;;
31978;SDS011;18502;43.574;1.276;2023-11-19T06:49:34;19.65;;;12.75;;
31978;SDS011;18502;43.574;1.276;2023-11-19T06:52:00;19.42;;;13.35;;
31978;SDS011;18502;43.574;1.276;2023-11-19T06:54:26;25.27;;;12.50;;
31978;SDS011;18502;43.574;1.276;2023-11-19T06:56:52;22.92;;;14.30;;
31978;SDS011;18502;43.574;1.276;2023-11-19T06:59:17;24.65;;;13.52;;
31978;SDS011;18502;43.574;1.276;2023-11-19T07:01:44;21.80;;;12.75;;
31978;SDS011;18502;43.574;1.276;2023-11-19T07:04:12;22.75;;;13.38;;
31978;SDS011;18502;43.574;1.276;2023-11-19T07:06:38;21.10;;;14.35;;
31978;SDS011;18502;43.574;1.276;2023-11-19T07:09:06;24.98;;;13.82;;
31978;SDS011;18502;43.574;1.276;2023-11-19T07:11:37;21.73;;;13.68;;
31978;SDS011;18502;43.574;1.276;2023-11-19T07:14:04;24.38;;;14.80;;
31978;SDS011;18502;43.574;1.276;2023-11-19T07:16:34;21.23;;;13.50;;
31978;SDS011;18502;43.574;1.276;2023-11-19T07:19:03;21.48;;;13.20;;
31978;SDS011;18502;43.574;1.276;2023-11-19T07:21:30;22.08;;;13.40;;
31978;SDS011;18502;43.574;1.276;2023-11-19T07:23:56;20.73;;;11.95;;
31978;SDS011;18502;43.574;1.276;2023-11-19T07:26:22;16.88;;;11.15;;
31978;SDS011;18502;43.574;1.276;2023-11-19T07:28:48;19.67;;;11.43;;
31978;SDS011;18502;43.574;1.276;2023-11-19T07:31:14;20.65;;;13.13;;
31978;SDS011;18502;43.574;1.276;2023-11-19T07:33:40;18.63;;;11.30;;
31978;SDS011;18502;43.574;1.276;2023-11-19T07:36:08;21.85;;;13.05;;
31978;SDS011;18502;43.574;1.276;2023-11-19T07:38:34;20.65;;;11.80;;
31978;SDS011;18502;43.574;1.276;2023-11-19T07:41:00;19.25;;;12.27;;
31978;SDS011;18502;43.574;1.276;2023-11-19T07:43:26;18.52;;;12.32;;
31978;SDS011;18502;43.574;1.276;2023-11-19T07:45:51;19.73;;;13.57;;
31978;SDS011;18502;43.574;1.276;2023-11-19T07:48:17;17.52;;;12.40;;
31978;SDS011;18502;43.574;1.276;2023-11-19T07:50:47;23.92;;;13.38;;
31978;SDS011;18502;43.574;1.276;2023-11-19T07:53:15;20.85;;;12.50;;
31978;SDS011;18502;43.574;1.276;2023-11-19T07:55:41;17.55;;;10.00;;
31978;SDS011;18502;43.574;1.276;2023-11-19T07:58:07;15.88;;;9.20;;
31978;SDS011;18502;43.574;1.276;2023-11-19T08:00:32;14.00;;;7.82;;
31978;SDS011;18502;43.574;1.276;2023-11-19T08:02:58;12.75;;;8.13;;
31978;SDS011;18502;43.574;1.276;2023-11-19T08:05:23;11.77;;;8.13;;
31978;SDS011;18502;43.574;1.276;2023-11-19T08:07:52;13.10;;;8.18;;
31978;SDS011;18502;43.574;1.276;2023-11-19T08:10:18;15.35;;;8.23;;
31978;SDS011;18502;43.574;1.276;2023-11-19T08:12:44;16.20;;;9.25;;
31978;SDS011;18502;43.574;1.276;2023-11-19T08:15:10;14.50;;;8.85;;
31978;SDS011;18502;43.574;1.276;2023-11-19T08:17:36;16.23;;;8.65;;
31978;SDS011;18502;43.574;1.276;2023-11-19T08:20:02;13.10;;;7.63;;
31978;SDS011;18502;43.574;1.276;2023-11-19T08:22:30;11.80;;;7.18;;
31978;SDS011;18502;43.574;1.276;2023-11-19T08:24:56;11.60;;;7.53;;
31978;SDS011;18502;43.574;1.276;2023-11-19T08:27:22;14.05;;;8.50;;
31978;SDS011;18502;43.574;1.276;2023-11-19T08:29:53;16.05;;;8.68;;
31978;SDS011;18502;43.574;1.276;2023-11-19T08:32:22;12.52;;;7.68;;
31978;SDS011;18502;43.574;1.276;2023-11-19T08:34:48;10.98;;;6.13;;
31978;SDS011;18502;43.574;1.276;2023-11-19T08:37:13;13.07;;;6.88;;
31978;SDS011;18502;43.574;1.276;2023-11-19T08:39:39;11.93;;;6.80;;
31978;SDS011;18502;43.574;1.276;2023-11-19T08:42:06;12.23;;;7.15;;
31978;SDS011;18502;43.574;1.276;2023-11-19T08:44:32;12.38;;;8.43;;
31978;SDS011;18502;43.574;1.276;2023-11-19T08:46:57;10.50;;;6.30;;
31978;SDS011;18502;43.574;1.276;2023-11-19T08:49:23;14.23;;;8.23;;
31978;SDS011;18502;43.574;1.276;2023-11-19T08:51:48;8.32;;;5.90;;
31978;SDS011;18502;43.574;1.276;2023-11-19T08:54:14;12.73;;;7.60;;
31978;SDS011;18502;43.574;1.276;2023-11-19T08:56:40;18.73;;;8.40;;
31978;SDS011;18502;43.574;1.276;2023-11-19T08:59:05;10.75;;;7.43;;
31978;SDS011;18502;43.574;1.276;2023-11-19T09:01:31;10.88;;;7.28;;
31978;SDS011;18502;43.574;1.276;2023-11-19T09:03:56;12.15;;;6.82;;
31978;SDS011;18502;43.574;1.276;2023-11-19T09:06:22;13.50;;;7.22;;
31978;SDS011;18502;43.574;1.276;2023-11-19T09:08:48;9.63;;;6.70;;
31978;SDS011;18502;43.574;1.276;2023-11-19T09:11:13;12.77;;;7.43;;
31978;SDS011;18502;43.574;1.276;2023-11-19T09:13:39;14.07;;;7.68;;
31978;SDS011;18502;43.574;1.276;2023-11-19T09:16:05;9.25;;;6.95;;
31978;SDS011;18502;43.574;1.276;2023-11-19T09:18:32;9.88;;;6.38;;
31978;SDS011;18502;43.574;1.276;2023-11-19T09:20:58;11.70;;;7.43;;
31978;SDS011;18502;43.574;1.276;2023-11-19T09:23:23;14.40;;;7.78;;
31978;SDS011;18502;43.574;1.276;2023-11-19T09:25:54;10.32;;;6.60;;
31978;SDS011;18502;43.574;1.276;2023-11-19T09:28:20;13.32;;;7.03;;
31978;SDS011;18502;43.574;1.276;2023-11-19T09:30:45;9.13;;;7.05;;
31978;SDS011;18502;43.574;1.276;2023-11-19T09:33:11;12.38;;;6.85;;
31978;SDS011;18502;43.574;1.276;2023-11-19T09:35:36;9.77;;;6.65;;
31978;SDS011;18502;43.574;1.276;2023-11-19T09:38:02;13.75;;;6.07;;
31978;SDS011;18502;43.574;1.276;2023-11-19T09:40:30;8.23;;;5.65;;
31978;SDS011;18502;43.574;1.276;2023-11-19T09:42:56;9.40;;;5.63;;
31978;SDS011;18502;43.574;1.276;2023-11-19T09:45:22;12.35;;;6.18;;
31978;SDS011;18502;43.574;1.276;2023-11-19T09:47:53;7.22;;;5.43;;
31978;SDS011;18502;43.574;1.276;2023-11-19T09:50:22;7.47;;;5.50;;
31978;SDS011;18502;43.574;1.276;2023-11-19T09:52:48;10.85;;;5.20;;
31978;SDS011;18502;43.574;1.276;2023-11-19T09:55:14;8.85;;;5.78;;
31978;SDS011;18502;43.574;1.276;2023-11-19T09:57:40;9.55;;;5.18;;
31978;SDS011;18502;43.574;1.276;2023-11-19T10:00:09;7.45;;;4.82;;
31978;SDS011;18502;43.574;1.276;2023-11-19T10:02:36;9.90;;;5.82;;
31978;SDS011;18502;43.574;1.276;2023-11-19T10:05:04;10.05;;;5.43;;
31978;SDS011;18502;43.574;1.276;2023-11-19T10:07:32;8.23;;;5.85;;
31978;SDS011;18502;43.574;1.276;2023-11-19T10:10:02;8.40;;;4.95;;
31978;SDS011;18502;43.574;1.276;2023-11-19T10:12:32;8.00;;;4.85;;
31978;SDS011;18502;43.574;1.276;2023-11-19T10:14:58;7.03;;;5.15;;
31978;SDS011;18502;43.574;1.276;2023-11-19T10:17:33;9.63;;;6.13;;
31978;SDS011;18502;43.574;1.276;2023-11-19T10:19:59;10.93;;;5.20;;
31978;SDS011;18502;43.574;1.276;2023-11-19T10:22:27;9.88;;;5.03;;
31978;SDS011;18502;43.574;1.276;2023-11-19T10:24:53;7.55;;;5.13;;
31978;SDS011;18502;43.574;1.276;2023-11-19T10:27:19;12.02;;;5.13;;
31978;SDS011;18502;43.574;1.276;2023-11-19T10:29:45;6.80;;;4.15;;
31978;SDS011;18502;43.574;1.276;2023-11-19T10:32:12;5.93;;;4.20;;
31978;SDS011;18502;43.574;1.276;2023-11-19T10:34:38;9.88;;;6.00;;
31978;SDS011;18502;43.574;1.276;2023-11-19T10:37:04;9.20;;;5.05;;
31978;SDS011;18502;43.574;1.276;2023-11-19T10:39:51;10.18;;;5.57;;
31978;SDS011;18502;43.574;1.276;2023-11-19T10:42:20;11.77;;;4.85;;
31978;SDS011;18502;43.574;1.276;2023-11-19T10:44:46;9.23;;;4.32;;
31978;SDS011;18502;43.574;1.276;2023-11-19T10:47:13;7.60;;;4.10;;
31978;SDS011;18502;43.574;1.276;2023-11-19T10:49:40;9.10;;;4.65;;
31978;SDS011;18502;43.574;1.276;2023-11-19T10:52:07;7.80;;;3.83;;
31978;SDS011;18502;43.574;1.276;2023-11-19T10:54:34;10.55;;;5.80;;
31978;SDS011;18502;43.574;1.276;2023-11-19T10:57:01;7.05;;;3.90;;
31978;SDS011;18502;43.574;1.276;2023-11-19T10:59:30;7.65;;;4.38;;
31978;SDS011;18502;43.574;1.276;2023-11-19T11:01:57;7.18;;;3.78;;
31978;SDS011;18502;43.574;1.276;2023-11-19T11:04:25;8.90;;;4.20;;
31978;SDS011;18502;43.574;1.276;2023-11-19T11:06:54;8.45;;;4.47;;
31978;SDS011;18502;43.574;1.276;2023-11-19T11:09:23;7.60;;;5.13;;
31978;SDS011;18502;43.574;1.276;2023-11-19T11:11:55;7.97;;;4.45;;
31978;SDS011;18502;43.574;1.276;2023-11-19T11:14:22;5.75;;;3.72;;
31978;SDS011;18502;43.574;1.276;2023-11-19T11:16:49;5.65;;;3.28;;
31978;SDS011;18502;43.574;1.276;2023-11-19T11:19:16;4.47;;;3.20;;
31978;SDS011;18502;43.574;1.276;2023-11-19T11:21:44;5.68;;;4.03;;
31978;SDS011;18502;43.574;1.276;2023-11-19T11:32:26;4.95;;;3.35;;
31978;SDS011;18502;43.574;1.276;2023-11-19T11:35:08;4.35;;;3.45;;
31978;SDS011;18502;43.574;1.276;2023-11-19T11:37:48;5.80;;;3.70;;
31978;SDS011;18502;43.574;1.276;2023-11-19T11:40:16;8.70;;;3.20;;
31978;SDS011;18502;43.574;1.276;2023-11-19T11:42:43;4.13;;;3.20;;
31978;SDS011;18502;43.574;1.276;2023-11-19T11:45:10;5.85;;;3.30;;
31978;SDS011;18502;43.574;1.276;2023-11-19T11:50:09;4.23;;;2.67;;
31978;SDS011;18502;43.574;1.276;2023-11-19T11:55:24;4.50;;;2.60;;
31978;SDS011;18502;43.574;1.276;2023-11-19T11:57:51;5.13;;;3.03;;
31978;SDS011;18502;43.574;1.276;2023-11-19T12:00:26;2.95;;;1.90;;
31978;SDS011;18502;43.574;1.276;2023-11-19T12:02:54;3.38;;;2.15;;
31978;SDS011;18502;43.574;1.276;2023-11-19T12:05:21;4.38;;;2.15;;
31978;SDS011;18502;43.574;1.276;2023-11-19T12:08:00;3.63;;;2.20;;
31978;SDS011;18502;43.574;1.276;2023-11-19T12:10:30;5.45;;;2.20;;
31978;SDS011;18502;43.574;1.276;2023-11-19T12:13:00;4.45;;;2.70;;
31978;SDS011;18502;43.574;1.276;2023-11-19T12:17:53;3.85;;;2.10;;
31978;SDS011;18502;43.574;1.276;2023-11-19T12:20:20;2.90;;;2.00;;
31978;SDS011;18502;43.574;1.276;2023-11-19T12:22:47;4.57;;;2.28;;
31978;SDS011;18502;43.574;1.276;2023-11-19T12:25:14;4.53;;;2.30;;
31978;SDS011;18502;43.574;1.276;2023-11-19T12:30:09;4.75;;;1.90;;
31978;SDS011;18502;43.574;1.276;2023-11-19T12:32:41;4.85;;;2.20;;
31978;SDS011;18502;43.574;1.276;2023-11-19T12:35:08;4.32;;;2.38;;
31978;SDS011;18502;43.574;1.276;2023-11-19T12:37:41;3.30;;;2.05;;
31978;SDS011;18502;43.574;1.276;2023-11-19T12:42:40;4.03;;;2.00;;
31978;SDS011;18502;43.574;1.276;2023-11-19T12:45:06;4.32;;;2.15;;
31978;SDS011;18502;43.574;1.276;2023-11-19T12:47:33;3.20;;;2.15;;
31978;SDS011;18502;43.574;1.276;2023-11-19T12:49:59;2.95;;;2.10;;
31978;SDS011;18502;43.574;1.276;2023-11-19T12:52:24;4.63;;;2.10;;
31978;SDS011;18502;43.574;1.276;2023-11-19T12:54:50;4.68;;;1.70;;
31978;SDS011;18502;43.574;1.276;2023-11-19T12:57:16;3.22;;;1.77;;
31978;SDS011;18502;43.574;1.276;2023-11-19T12:59:53;2.63;;;1.75;;
31978;SDS011;18502;43.574;1.276;2023-11-19T13:02:21;5.65;;;1.90;;
31978;SDS011;18502;43.574;1.276;2023-11-19T13:04:46;3.15;;;1.88;;
31978;SDS011;18502;43.574;1.276;2023-11-19T13:07:12;3.42;;;1.90;;
31978;SDS011;18502;43.574;1.276;2023-11-19T13:09:38;2.58;;;1.77;;
31978;SDS011;18502;43.574;1.276;2023-11-19T13:12:13;4.07;;;2.00;;
31978;SDS011;18502;43.574;1.276;2023-11-19T13:14:40;3.05;;;2.28;;
31978;SDS011;18502;43.574;1.276;2023-11-19T13:17:07;4.15;;;1.92;;
31978;SDS011;18502;43.574;1.276;2023-11-19T13:19:33;3.00;;;1.90;;
31978;SDS011;18502;43.574;1.276;2023-11-19T13:21:59;4.35;;;2.17;;
31978;SDS011;18502;43.574;1.276;2023-11-19T13:24:24;4.22;;;2.17;;
31978;SDS011;18502;43.574;1.276;2023-11-19T13:26:50;3.25;;;2.20;;
31978;SDS011;18502;43.574;1.276;2023-11-19T13:29:16;3.17;;;2.00;;
31978;SDS011;18502;43.574;1.276;2023-11-19T13:31:41;2.88;;;2.28;;
31978;SDS011;18502;43.574;1.276;2023-11-19T13:34:07;4.70;;;2.42;;
31978;SDS011;18502;43.574;1.276;2023-11-19T13:36:33;5.15;;;2.00;;
31978;SDS011;18502;43.574;1.276;2023-11-19T13:38:59;3.00;;;1.83;;
31978;SDS011;18502;43.574;1.276;2023-11-19T13:41:26;4.80;;;2.47;;
31978;SDS011;18502;43.574;1.276;2023-11-19T13:43:51;5.10;;;2.05;;
31978;SDS011;18502;43.574;1.276;2023-11-19T13:46:17;2.25;;;1.75;;
31978;SDS011;18502;43.574;1.276;2023-11-19T13:48:43;5.85;;;2.00;;
31978;SDS011;18502;43.574;1.276;2023-11-19T13:51:09;4.32;;;2.30;;
31978;SDS011;18502;43.574;1.276;2023-11-19T13:53:35;3.33;;;2.00;;
31978;SDS011;18502;43.574;1.276;2023-11-19T13:56:01;3.85;;;1.92;;
31978;SDS011;18502;43.574;1.276;2023-11-19T13:58:27;5.78;;;2.25;;
31978;SDS011;18502;43.574;1.276;2023-11-19T14:00:52;4.28;;;2.63;;
31978;SDS011;18502;43.574;1.276;2023-11-19T14:03:18;5.65;;;2.28;;
31978;SDS011;18502;43.574;1.276;2023-11-19T14:05:44;3.45;;;2.58;;
31978;SDS011;18502;43.574;1.276;2023-11-19T14:08:10;3.45;;;2.20;;
31978;SDS011;18502;43.574;1.276;2023-11-19T14:10:39;5.40;;;2.73;;
31978;SDS011;18502;43.574;1.276;2023-11-19T14:13:05;4.97;;;2.00;;
31978;SDS011;18502;43.574;1.276;2023-11-19T14:15:32;3.78;;;2.35;;
31978;SDS011;18502;43.574;1.276;2023-11-19T14:17:57;4.18;;;2.33;;
31978;SDS011;18502;43.574;1.276;2023-11-19T14:20:23;2.78;;;2.00;;
31978;SDS011;18502;43.574;1.276;2023-11-19T14:22:50;2.80;;;2.00;;
31978;SDS011;18502;43.574;1.276;2023-11-19T14:25:17;6.05;;;2.50;;
31978;SDS011;18502;43.574;1.276;2023-11-19T14:27:44;8.10;;;2.78;;
31978;SDS011;18502;43.574;1.276;2023-11-19T14:30:11;3.95;;;2.25;;
31978;SDS011;18502;43.574;1.276;2023-11-19T14:32:42;4.05;;;2.30;;
31978;SDS011;18502;43.574;1.276;2023-11-19T14:35:09;3.28;;;2.15;;
31978;SDS011;18502;43.574;1.276;2023-11-19T14:37:35;4.95;;;2.15;;
31978;SDS011;18502;43.574;1.276;2023-11-19T14:40:01;6.47;;;2.47;;
31978;SDS011;18502;43.574;1.276;2023-11-19T14:42:30;5.43;;;1.98;;
31978;SDS011;18502;43.574;1.276;2023-11-19T14:44:56;4.57;;;2.33;;
31978;SDS011;18502;43.574;1.276;2023-11-19T14:47:22;5.38;;;2.15;;
31978;SDS011;18502;43.574;1.276;2023-11-19T14:49:48;6.65;;;2.55;;